createdAt,value
2019-06-20T00:00:48.601Z,986.64
2019-06-20T00:01:48.603Z,986.69
2019-06-20T00:02:48.580Z,986.77
2019-06-20T00:03:48.578Z,986.71
2019-06-20T00:04:48.642Z,986.75
2019-06-20T00:05:48.556Z,986.80
2019-06-20T00:06:48.554Z,986.80
2019-06-20T00:07:48.525Z,986.79
2019-06-20T00:08:48.516Z,986.78
2019-06-20T00:09:48.503Z,986.79
2019-06-20T00:10:48.502Z,986.76
2019-06-20T00:11:48.482Z,986.82
2019-06-20T00:13:00.013Z,986.79
2019-06-20T00:13:49.460Z,986.81
2019-06-20T00:14:48.448Z,986.82
2019-06-20T00:15:48.775Z,986.83
2019-06-20T00:16:48.427Z,986.87
2019-06-20T00:17:48.418Z,986.79
2019-06-20T00:18:48.408Z,986.80
2019-06-20T00:19:48.395Z,986.80
2019-06-20T00:20:48.395Z,986.84
2019-06-20T00:21:48.375Z,986.90
2019-06-20T00:22:48.362Z,986.92
2019-06-20T00:23:48.354Z,986.88
2019-06-20T00:24:48.348Z,986.94
2019-06-20T00:25:48.341Z,986.95
2019-06-20T00:26:48.322Z,986.95
2019-06-20T00:27:48.313Z,986.93
2019-06-20T00:28:48.296Z,987.00
2019-06-20T00:29:49.243Z,987.00
2019-06-20T00:30:49.260Z,987.01
2019-06-20T00:31:48.349Z,987.00
2019-06-20T00:32:48.522Z,986.98
2019-06-20T00:33:48.241Z,986.99
2019-06-20T00:34:48.456Z,987.04
2019-06-20T00:35:48.334Z,986.92
2019-06-20T00:36:51.237Z,986.94
2019-06-20T00:37:48.296Z,986.92
2019-06-20T00:38:48.198Z,986.98
2019-06-20T00:39:48.268Z,986.95
2019-06-20T00:40:48.220Z,987.01
2019-06-20T00:41:48.263Z,987.08
2019-06-20T00:42:48.265Z,987.10
2019-06-20T00:43:48.142Z,987.12
2019-06-20T00:44:48.172Z,987.13
2019-06-20T00:45:48.227Z,987.18
2019-06-20T00:46:48.154Z,987.16
2019-06-20T00:47:48.139Z,987.10
2019-06-20T00:48:48.089Z,987.07
2019-06-20T00:49:48.190Z,987.01
2019-06-20T00:50:48.101Z,986.99
2019-06-20T00:51:48.087Z,987.03
2019-06-20T00:52:48.037Z,987.02
2019-06-20T00:53:48.026Z,986.99
2019-06-20T00:54:48.013Z,986.96
2019-06-20T00:55:48.013Z,987.01
2019-06-20T00:56:47.993Z,987.01
2019-06-20T00:57:47.980Z,986.98
2019-06-20T00:58:47.969Z,986.93
2019-06-20T00:59:47.959Z,986.98
2019-06-20T01:00:47.966Z,986.97
2019-06-20T01:01:47.938Z,986.98
2019-06-20T01:02:47.932Z,987.02
2019-06-20T01:03:47.939Z,986.97
2019-06-20T01:04:47.922Z,987.02
2019-06-20T01:05:47.906Z,987.01
2019-06-20T01:06:47.886Z,986.98
2019-06-20T01:07:47.875Z,987.02
2019-06-20T01:08:47.866Z,986.99
2019-06-20T01:09:47.859Z,987.10
2019-06-20T01:10:47.859Z,987.06
2019-06-20T01:11:47.830Z,987.06
2019-06-20T01:12:47.834Z,987.12
2019-06-20T01:13:47.816Z,987.12
2019-06-20T01:14:47.797Z,987.12
2019-06-20T01:15:47.874Z,987.11
2019-06-20T01:16:47.776Z,987.09
2019-06-20T01:17:47.766Z,987.11
2019-06-20T01:18:47.761Z,987.09
2019-06-20T01:19:47.740Z,987.04
2019-06-20T01:20:47.756Z,987.13
2019-06-20T01:21:47.720Z,987.12
2019-06-20T01:22:47.708Z,987.08
2019-06-20T01:23:47.702Z,987.14
2019-06-20T01:24:47.697Z,987.16
2019-06-20T01:25:47.676Z,987.15
2019-06-20T01:26:47.701Z,987.17
2019-06-20T01:27:47.655Z,987.20
2019-06-20T01:28:47.652Z,987.12
2019-06-20T01:29:47.681Z,987.10
2019-06-20T01:30:47.657Z,987.09
2019-06-20T01:31:47.623Z,987.13
2019-06-20T01:32:47.601Z,987.14
2019-06-20T01:33:47.591Z,987.16
2019-06-20T01:34:47.582Z,987.17
2019-06-20T01:35:47.568Z,987.14
2019-06-20T01:36:47.571Z,987.13
2019-06-20T01:37:47.553Z,987.12
2019-06-20T01:38:47.537Z,987.20
2019-06-20T01:39:47.552Z,987.17
2019-06-20T01:40:47.513Z,987.29
2019-06-20T01:41:47.517Z,987.33
2019-06-20T01:42:47.492Z,987.41
2019-06-20T01:43:51.011Z,987.52
2019-06-20T01:44:47.486Z,987.55
2019-06-20T01:45:47.458Z,987.72
2019-06-20T01:46:47.458Z,987.76
2019-06-20T01:47:47.440Z,987.84
2019-06-20T01:48:47.447Z,987.88
2019-06-20T01:49:48.293Z,987.91
2019-06-20T01:50:47.407Z,987.95
2019-06-20T01:51:47.423Z,988.02
2019-06-20T01:52:47.382Z,988.10
2019-06-20T01:53:47.371Z,988.13
2019-06-20T01:54:47.362Z,988.10
2019-06-20T01:55:47.358Z,988.18
2019-06-20T01:56:47.394Z,988.30
2019-06-20T01:57:47.330Z,988.18
2019-06-20T01:58:47.423Z,988.16
2019-06-20T01:59:47.306Z,988.36
2019-06-20T02:00:47.298Z,988.45
2019-06-20T02:01:47.310Z,988.60
2019-06-20T02:02:47.274Z,988.64
2019-06-20T02:03:47.287Z,988.62
2019-06-20T02:04:47.252Z,988.60
2019-06-20T02:05:47.281Z,988.63
2019-06-20T02:06:47.243Z,988.62
2019-06-20T02:07:47.219Z,988.65
2019-06-20T02:08:47.210Z,988.63
2019-06-20T02:09:47.205Z,988.63
2019-06-20T02:10:47.215Z,988.64
2019-06-20T02:11:47.189Z,988.65
2019-06-20T02:12:47.188Z,988.68
2019-06-20T02:13:47.182Z,988.64
2019-06-20T02:14:47.146Z,988.65
2019-06-20T02:15:47.148Z,988.55
2019-06-20T02:16:47.137Z,988.62
2019-06-20T02:17:47.122Z,988.63
2019-06-20T02:18:47.109Z,988.62
2019-06-20T02:19:47.096Z,988.64
2019-06-20T02:20:47.079Z,988.70
2019-06-20T02:21:47.307Z,988.67
2019-06-20T02:22:47.060Z,988.68
2019-06-20T02:23:47.048Z,988.68
2019-06-20T02:24:47.037Z,988.58
2019-06-20T02:25:47.024Z,988.54
2019-06-20T02:26:47.027Z,988.47
2019-06-20T02:27:47.009Z,988.30
2019-06-20T02:28:46.995Z,988.22
2019-06-20T02:29:46.987Z,988.09
2019-06-20T02:30:46.978Z,988.07
2019-06-20T02:31:46.970Z,988.04
2019-06-20T02:32:46.954Z,988.02
2019-06-20T02:33:46.939Z,987.85
2019-06-20T02:34:46.937Z,987.73
2019-06-20T02:35:46.929Z,987.70
2019-06-20T02:36:46.923Z,987.74
2019-06-20T02:37:46.895Z,987.70
2019-06-20T02:38:46.884Z,987.71
2019-06-20T02:39:46.876Z,987.76
2019-06-20T02:40:46.885Z,987.73
2019-06-20T02:41:46.876Z,987.70
2019-06-20T02:42:46.846Z,987.73
2019-06-20T02:43:46.830Z,987.68
2019-06-20T02:44:46.823Z,987.66
2019-06-20T02:45:46.816Z,987.62
2019-06-20T02:46:46.798Z,987.62
2019-06-20T02:47:46.809Z,987.68
2019-06-20T02:48:46.776Z,987.75
2019-06-20T02:49:46.765Z,987.78
2019-06-20T02:50:46.753Z,987.68
2019-06-20T02:51:46.791Z,987.67
2019-06-20T02:52:46.749Z,987.66
2019-06-20T02:53:46.724Z,987.62
2019-06-20T02:54:46.748Z,987.63
2019-06-20T02:55:46.703Z,987.65
2019-06-20T02:56:46.688Z,987.69
2019-06-20T02:57:46.697Z,987.69
2019-06-20T02:58:46.667Z,987.72
2019-06-20T02:59:46.656Z,987.80
2019-06-20T03:00:46.649Z,987.77
2019-06-20T03:01:46.662Z,987.78
2019-06-20T03:02:46.641Z,987.78
2019-06-20T03:03:46.618Z,987.77
2019-06-20T03:04:46.602Z,987.66
2019-06-20T03:05:46.633Z,987.59
2019-06-20T03:06:46.580Z,987.55
2019-06-20T03:07:46.583Z,987.54
2019-06-20T03:08:46.577Z,987.52
2019-06-20T03:09:46.554Z,987.53
2019-06-20T03:10:46.540Z,987.63
2019-06-20T03:11:46.548Z,987.60
2019-06-20T03:12:46.533Z,987.62
2019-06-20T03:13:46.504Z,987.59
2019-06-20T03:14:46.496Z,987.64
2019-06-20T03:15:49.864Z,987.63
2019-06-20T03:16:46.478Z,987.68
2019-06-20T03:17:46.472Z,987.75
2019-06-20T03:18:46.453Z,987.77
2019-06-20T03:19:46.454Z,987.80
2019-06-20T03:20:46.432Z,987.81
2019-06-20T03:21:47.288Z,987.71
2019-06-20T03:22:46.808Z,987.75
2019-06-20T03:23:46.399Z,987.75
2019-06-20T03:24:47.306Z,987.74
2019-06-20T03:25:46.384Z,987.75
2019-06-20T03:26:46.363Z,987.74
2019-06-20T03:27:46.363Z,987.64
2019-06-20T03:28:46.342Z,987.64
2019-06-20T03:29:46.335Z,987.67
2019-06-20T03:30:46.335Z,987.64
2019-06-20T03:31:46.334Z,987.76
2019-06-20T03:32:46.316Z,987.79
2019-06-20T03:33:46.295Z,987.83
2019-06-20T03:34:46.280Z,987.83
2019-06-20T03:35:46.271Z,987.89
2019-06-20T03:36:46.257Z,987.91
2019-06-20T03:37:50.010Z,987.91
2019-06-20T03:38:46.244Z,987.90
2019-06-20T03:39:46.235Z,987.92
2019-06-20T03:40:46.219Z,987.88
2019-06-20T03:41:46.204Z,987.93
2019-06-20T03:42:46.203Z,987.93
2019-06-20T03:43:46.195Z,987.94
2019-06-20T03:45:01.243Z,987.92
2019-06-20T03:45:47.238Z,987.91
2019-06-20T03:46:46.156Z,987.96
2019-06-20T03:47:46.157Z,987.96
2019-06-20T03:48:46.129Z,987.95
2019-06-20T03:49:46.119Z,987.98
2019-06-20T03:50:46.107Z,988.05
2019-06-20T03:51:46.120Z,988.01
2019-06-20T03:52:46.096Z,988.01
2019-06-20T03:53:46.076Z,988.04
2019-06-20T03:54:46.063Z,987.95
2019-06-20T03:55:46.053Z,987.96
2019-06-20T03:56:46.042Z,987.93
2019-06-20T03:57:46.076Z,988.00
2019-06-20T03:58:46.021Z,987.94
2019-06-20T03:59:46.010Z,987.95
2019-06-20T04:00:45.999Z,987.92
2019-06-20T04:01:49.055Z,987.99
2019-06-20T04:02:45.980Z,988.00
2019-06-20T04:03:45.986Z,988.01
2019-06-20T04:04:45.957Z,987.99
2019-06-20T04:05:45.947Z,988.00
2019-06-20T04:06:45.936Z,988.06
2019-06-20T04:07:45.927Z,988.07
2019-06-20T04:08:45.926Z,988.07
2019-06-20T04:09:45.902Z,988.06
2019-06-20T04:10:45.892Z,988.17
2019-06-20T04:11:45.884Z,988.08
2019-06-20T04:12:45.884Z,988.11
2019-06-20T04:13:45.868Z,988.15
2019-06-20T04:14:48.897Z,988.21
2019-06-20T04:15:45.844Z,988.14
2019-06-20T04:16:45.842Z,988.19
2019-06-20T04:17:45.819Z,988.17
2019-06-20T04:18:45.820Z,988.23
2019-06-20T04:19:45.798Z,988.13
2019-06-20T04:20:45.787Z,988.19
2019-06-20T04:21:45.785Z,988.13
2019-06-20T04:22:45.764Z,988.09
2019-06-20T04:23:45.761Z,988.11
2019-06-20T04:24:45.740Z,988.13
2019-06-20T04:25:45.751Z,988.09
2019-06-20T04:26:45.722Z,988.15
2019-06-20T04:27:45.708Z,988.16
2019-06-20T04:28:45.711Z,988.18
2019-06-20T04:29:45.687Z,988.12
2019-06-20T04:30:45.682Z,988.18
2019-06-20T04:31:45.670Z,988.21
2019-06-20T04:32:45.659Z,988.18
2019-06-20T04:33:45.654Z,988.16
2019-06-20T04:34:45.633Z,988.05
2019-06-20T04:35:45.623Z,988.12
2019-06-20T04:36:48.066Z,988.12
2019-06-20T04:37:45.600Z,988.10
2019-06-20T04:38:45.600Z,988.16
2019-06-20T04:39:45.592Z,988.18
2019-06-20T04:40:45.571Z,988.14
2019-06-20T04:41:45.559Z,988.16
2019-06-20T04:42:45.545Z,988.11
2019-06-20T04:43:45.555Z,988.13
2019-06-20T04:44:45.527Z,988.14
2019-06-20T04:45:45.536Z,988.15
2019-06-20T04:46:45.502Z,988.15
2019-06-20T04:47:45.491Z,988.14
2019-06-20T04:48:45.490Z,988.12
2019-06-20T04:49:45.524Z,988.08
2019-06-20T04:50:45.463Z,988.04
2019-06-20T04:51:45.457Z,988.04
2019-06-20T04:52:45.440Z,988.06
2019-06-20T04:53:45.438Z,988.05
2019-06-20T04:54:45.417Z,988.09
2019-06-20T04:55:45.405Z,988.05
2019-06-20T04:56:45.395Z,988.12
2019-06-20T04:57:45.393Z,988.12
2019-06-20T04:58:45.383Z,988.05
2019-06-20T04:59:45.422Z,988.05
2019-06-20T05:00:45.350Z,988.06
2019-06-20T05:01:45.341Z,988.04
2019-06-20T05:02:45.334Z,988.12
2019-06-20T05:03:45.353Z,988.12
2019-06-20T05:04:45.353Z,988.07
2019-06-20T05:05:45.300Z,988.15
2019-06-20T05:06:45.333Z,988.14
2019-06-20T05:07:45.289Z,988.15
2019-06-20T05:08:45.284Z,988.22
2019-06-20T05:09:45.255Z,988.21
2019-06-20T05:10:45.253Z,988.21
2019-06-20T05:11:45.257Z,988.31
2019-06-20T05:12:45.223Z,988.29
2019-06-20T05:13:45.242Z,988.32
2019-06-20T05:14:45.205Z,988.25
2019-06-20T05:15:52.666Z,988.15
2019-06-20T05:16:46.183Z,988.21
2019-06-20T05:17:45.169Z,988.26
2019-06-20T05:18:45.185Z,988.27
2019-06-20T05:19:45.147Z,988.26
2019-06-20T05:20:45.135Z,988.23
2019-06-20T05:21:45.144Z,988.26
2019-06-20T05:22:45.117Z,988.22
2019-06-20T05:23:45.107Z,988.26
2019-06-20T05:24:45.112Z,988.25
2019-06-20T05:25:45.095Z,988.25
2019-06-20T05:26:45.074Z,988.31
2019-06-20T05:27:45.068Z,988.26
2019-06-20T05:28:45.055Z,988.26
2019-06-20T05:29:45.057Z,988.22
2019-06-20T05:30:45.036Z,988.21
2019-06-20T05:31:45.032Z,988.26
2019-06-20T05:32:45.011Z,988.23
2019-06-20T05:33:44.997Z,988.28
2019-06-20T05:34:44.996Z,988.34
2019-06-20T05:35:44.983Z,988.35
2019-06-20T05:36:44.976Z,988.41
2019-06-20T05:37:44.955Z,988.42
2019-06-20T05:38:51.981Z,988.38
2019-06-20T05:39:44.941Z,988.39
2019-06-20T05:40:44.918Z,988.42
2019-06-20T05:41:44.920Z,988.38
2019-06-20T05:42:44.900Z,988.39
2019-06-20T05:43:44.930Z,988.38
2019-06-20T05:44:44.885Z,988.36
2019-06-20T05:45:48.540Z,988.38
2019-06-20T05:46:44.876Z,988.41
2019-06-20T05:47:44.843Z,988.41
2019-06-20T05:48:44.833Z,988.43
2019-06-20T05:49:44.836Z,988.45
2019-06-20T05:50:44.811Z,988.44
2019-06-20T05:51:44.800Z,988.46
2019-06-20T05:52:44.803Z,988.43
2019-06-20T05:53:44.782Z,988.41
2019-06-20T05:54:44.791Z,988.38
2019-06-20T05:55:44.767Z,988.43
2019-06-20T05:56:44.769Z,988.41
2019-06-20T05:57:44.738Z,988.41
2019-06-20T05:58:44.728Z,988.44
2019-06-20T05:59:44.724Z,988.40
2019-06-20T06:00:44.703Z,988.41
2019-06-20T06:01:44.733Z,988.36
2019-06-20T06:02:44.732Z,988.35
2019-06-20T06:03:44.673Z,988.39
2019-06-20T06:04:44.702Z,988.32
2019-06-20T06:05:44.653Z,988.34
2019-06-20T06:06:44.642Z,988.31
2019-06-20T06:07:44.638Z,988.30
2019-06-20T06:08:44.616Z,988.26
2019-06-20T06:09:45.708Z,988.24
2019-06-20T06:10:44.598Z,988.34
2019-06-20T06:11:44.624Z,988.29
2019-06-20T06:12:45.274Z,988.26
2019-06-20T06:13:44.566Z,988.27
2019-06-20T06:14:44.565Z,988.27
2019-06-20T06:15:44.575Z,988.26
2019-06-20T06:16:44.538Z,988.28
2019-06-20T06:17:44.535Z,988.29
2019-06-20T06:18:44.542Z,988.32
2019-06-20T06:19:44.526Z,988.27
2019-06-20T06:20:45.069Z,988.28
2019-06-20T06:21:44.478Z,988.30
2019-06-20T06:22:44.883Z,988.29
2019-06-20T06:23:44.458Z,988.30
2019-06-20T06:24:44.457Z,988.27
2019-06-20T06:25:44.468Z,988.29
2019-06-20T06:26:44.431Z,988.32
2019-06-20T06:27:44.421Z,988.35
2019-06-20T06:28:44.402Z,988.33
2019-06-20T06:29:44.405Z,988.33
2019-06-20T06:30:44.381Z,988.38
2019-06-20T06:31:44.372Z,988.38
2019-06-20T06:32:44.359Z,988.47
2019-06-20T06:33:44.349Z,988.38
2019-06-20T06:34:44.391Z,988.44
2019-06-20T06:35:44.336Z,988.37
2019-06-20T06:36:44.319Z,988.39
2019-06-20T06:37:44.360Z,988.34
2019-06-20T06:38:44.294Z,988.33
2019-06-20T06:39:44.286Z,988.37
2019-06-20T06:40:44.291Z,988.39
2019-06-20T06:41:44.266Z,988.34
2019-06-20T06:42:44.390Z,988.42
2019-06-20T06:43:44.241Z,988.42
2019-06-20T06:44:44.235Z,988.46
2019-06-20T06:45:44.234Z,988.44
2019-06-20T06:46:53.166Z,988.42
2019-06-20T06:47:45.197Z,988.45
2019-06-20T06:48:44.218Z,988.44
2019-06-20T06:49:44.205Z,988.44
2019-06-20T06:50:44.182Z,988.42
2019-06-20T06:51:44.161Z,988.44
2019-06-20T06:52:44.151Z,988.41
2019-06-20T06:53:44.135Z,988.39
2019-06-20T06:54:44.123Z,988.37
2019-06-20T06:55:44.122Z,988.38
2019-06-20T06:56:44.158Z,988.35
2019-06-20T06:57:44.094Z,988.39
2019-06-20T06:58:44.080Z,988.44
2019-06-20T06:59:44.079Z,988.40
2019-06-20T07:00:44.070Z,988.37
2019-06-20T07:01:44.046Z,988.42
2019-06-20T07:02:44.038Z,988.41
2019-06-20T07:03:44.039Z,988.38
2019-06-20T07:04:44.021Z,988.44
2019-06-20T07:05:44.037Z,988.40
2019-06-20T07:06:44.001Z,988.48
2019-06-20T07:07:43.983Z,988.43
2019-06-20T07:08:43.971Z,988.50
2019-06-20T07:09:43.962Z,988.51
2019-06-20T07:10:43.965Z,988.49
2019-06-20T07:11:43.940Z,988.51
2019-06-20T07:12:43.956Z,988.52
2019-06-20T07:13:43.921Z,988.51
2019-06-20T07:14:43.909Z,988.56
2019-06-20T07:15:43.905Z,988.52
2019-06-20T07:16:50.892Z,988.47
2019-06-20T07:17:44.873Z,988.46
2019-06-20T07:18:43.905Z,988.48
2019-06-20T07:19:43.852Z,988.47
2019-06-20T07:20:43.892Z,988.45
2019-06-20T07:21:43.845Z,988.47
2019-06-20T07:22:43.820Z,988.51
2019-06-20T07:23:43.811Z,988.49
2019-06-20T07:24:43.819Z,988.55
2019-06-20T07:25:43.798Z,988.54
2019-06-20T07:26:43.778Z,988.53
2019-06-20T07:27:43.782Z,988.49
2019-06-20T07:28:43.757Z,988.42
2019-06-20T07:29:43.755Z,988.36
2019-06-20T07:30:43.745Z,988.38
2019-06-20T07:31:43.728Z,988.30
2019-06-20T07:32:43.713Z,988.33
2019-06-20T07:33:43.707Z,988.28
2019-06-20T07:34:43.691Z,988.30
2019-06-20T07:35:43.707Z,988.30
2019-06-20T07:36:43.670Z,988.42
2019-06-20T07:37:43.662Z,988.35
2019-06-20T07:38:43.650Z,988.36
2019-06-20T07:39:43.641Z,988.35
2019-06-20T07:40:43.651Z,988.32
2019-06-20T07:41:43.618Z,988.39
2019-06-20T07:42:43.639Z,988.32
2019-06-20T07:43:43.617Z,988.42
2019-06-20T07:44:43.586Z,988.23
2019-06-20T07:45:43.572Z,988.17
2019-06-20T07:46:43.575Z,988.18
2019-06-20T07:47:43.587Z,988.13
2019-06-20T07:48:43.552Z,988.16
2019-06-20T07:49:43.528Z,988.19
2019-06-20T07:50:43.519Z,988.14
2019-06-20T07:51:43.520Z,988.15
2019-06-20T07:52:57.756Z,988.13
2019-06-20T07:53:44.489Z,988.02
2019-06-20T07:54:43.669Z,988.09
2019-06-20T07:55:43.478Z,988.12
2019-06-20T07:56:43.465Z,988.17
2019-06-20T07:57:43.444Z,988.22
2019-06-20T07:58:43.437Z,988.12
2019-06-20T07:59:43.430Z,988.18
2019-06-20T08:00:43.436Z,988.25
2019-06-20T08:01:43.420Z,988.23
2019-06-20T08:02:43.390Z,988.20
2019-06-20T08:03:45.246Z,988.20
2019-06-20T08:04:43.368Z,988.30
2019-06-20T08:05:43.358Z,988.22
2019-06-20T08:06:43.358Z,988.23
2019-06-20T08:07:43.555Z,988.29
2019-06-20T08:08:43.327Z,988.27
2019-06-20T08:09:45.114Z,988.27
2019-06-20T08:10:43.307Z,988.32
2019-06-20T08:11:43.304Z,988.39
2019-06-20T08:12:43.282Z,988.39
2019-06-20T08:13:43.281Z,988.43
2019-06-20T08:14:43.262Z,988.47
2019-06-20T08:15:43.252Z,988.52
2019-06-20T08:16:43.253Z,988.49
2019-06-20T08:17:43.396Z,988.44
2019-06-20T08:18:43.219Z,988.42
2019-06-20T08:19:43.220Z,988.32
2019-06-20T08:20:43.200Z,988.27
2019-06-20T08:21:44.220Z,988.22
2019-06-20T08:22:43.177Z,988.25
2019-06-20T08:23:43.176Z,988.16
2019-06-20T08:24:43.154Z,988.24
2019-06-20T08:25:43.170Z,988.23
2019-06-20T08:26:43.143Z,988.18
2019-06-20T08:27:43.141Z,988.16
2019-06-20T08:28:43.111Z,988.18
2019-06-20T08:29:43.136Z,988.31
2019-06-20T08:30:43.098Z,988.40
2019-06-20T08:31:43.158Z,988.23
2019-06-20T08:32:43.085Z,988.16
2019-06-20T08:33:43.085Z,988.21
2019-06-20T08:34:43.052Z,988.17
2019-06-20T08:35:43.046Z,988.21
2019-06-20T08:36:43.037Z,988.21
2019-06-20T08:37:43.026Z,988.28
2019-06-20T08:38:43.007Z,988.40
2019-06-20T08:39:42.997Z,988.28
2019-06-20T08:40:42.987Z,988.40
2019-06-20T08:41:42.986Z,988.32
2019-06-20T08:42:42.966Z,988.39
2019-06-20T08:43:42.972Z,988.32
2019-06-20T08:44:42.947Z,988.35
2019-06-20T08:45:42.933Z,988.31
2019-06-20T08:46:42.933Z,988.35
2019-06-20T08:47:42.933Z,988.55
2019-06-20T08:48:42.904Z,988.46
2019-06-20T08:49:42.905Z,988.46
2019-06-20T08:50:42.885Z,988.57
2019-06-20T08:51:42.886Z,988.58
2019-06-20T08:52:42.859Z,988.58
2019-06-20T08:53:42.849Z,988.54
2019-06-20T08:54:42.839Z,988.51
2019-06-20T08:55:42.845Z,988.33
2019-06-20T08:56:42.856Z,988.34
2019-06-20T08:57:42.849Z,988.41
2019-06-20T08:58:42.796Z,988.46
2019-06-20T08:59:42.795Z,988.43
2019-06-20T09:00:42.831Z,988.58
2019-06-20T09:01:42.787Z,988.44
2019-06-20T09:02:42.765Z,988.40
2019-06-20T09:03:42.743Z,988.56
2019-06-20T09:04:42.735Z,988.48
2019-06-20T09:05:42.723Z,988.49
2019-06-20T09:06:42.713Z,988.44
2019-06-20T09:07:42.727Z,988.41
2019-06-20T09:08:42.692Z,988.37
2019-06-20T09:09:42.681Z,988.35
2019-06-20T09:10:42.670Z,988.40
2019-06-20T09:11:42.660Z,988.35
2019-06-20T09:12:42.660Z,988.46
2019-06-20T09:13:42.650Z,988.41
2019-06-20T09:14:42.629Z,988.36
2019-06-20T09:15:42.629Z,988.40
2019-06-20T09:16:42.619Z,988.47
2019-06-20T09:17:42.636Z,988.47
2019-06-20T09:18:42.587Z,988.42
2019-06-20T09:19:42.599Z,988.38
2019-06-20T09:20:42.565Z,988.39
2019-06-20T09:21:42.555Z,988.45
2019-06-20T09:22:42.560Z,988.41
2019-06-20T09:23:42.535Z,988.43
2019-06-20T09:24:42.524Z,988.44
2019-06-20T09:25:42.525Z,988.43
2019-06-20T09:26:42.503Z,988.46
2019-06-20T09:27:42.537Z,988.45
2019-06-20T09:28:42.484Z,988.40
2019-06-20T09:29:42.472Z,988.42
2019-06-20T09:30:42.463Z,988.47
2019-06-20T09:31:42.463Z,988.40
2019-06-20T09:32:42.575Z,988.41
2019-06-20T09:33:42.434Z,988.44
2019-06-20T09:34:42.420Z,988.37
2019-06-20T09:35:42.410Z,988.55
2019-06-20T09:36:42.399Z,988.42
2019-06-20T09:37:42.444Z,988.40
2019-06-20T09:38:42.378Z,988.38
2019-06-20T09:39:42.375Z,988.35
2019-06-20T09:40:42.357Z,988.44
2019-06-20T09:41:42.345Z,988.41
2019-06-20T09:42:42.345Z,988.42
2019-06-20T09:43:42.336Z,988.52
2019-06-20T09:44:42.315Z,988.47
2019-06-20T09:45:42.304Z,988.44
2019-06-20T09:46:42.295Z,988.40
2019-06-20T09:47:42.293Z,988.41
2019-06-20T09:48:42.329Z,988.41
2019-06-20T09:49:42.274Z,988.45
2019-06-20T09:50:42.252Z,988.46
2019-06-20T09:51:42.242Z,988.43
2019-06-20T09:52:42.241Z,988.51
2019-06-20T09:53:42.221Z,988.52
2019-06-20T09:54:42.214Z,988.50
2019-06-20T09:55:42.249Z,988.49
2019-06-20T09:56:42.188Z,988.52
2019-06-20T09:57:42.331Z,988.49
2019-06-20T09:58:42.167Z,988.54
2019-06-20T09:59:56.102Z,988.58
2019-06-20T10:00:43.149Z,988.49
2019-06-20T10:01:42.146Z,988.54
2019-06-20T10:02:42.138Z,988.52
2019-06-20T10:03:42.126Z,988.59
2019-06-20T10:04:42.108Z,988.60
2019-06-20T10:05:42.093Z,988.58
2019-06-20T10:06:42.084Z,988.61
2019-06-20T10:07:42.102Z,988.57
2019-06-20T10:08:42.063Z,988.55
2019-06-20T10:09:42.052Z,988.54
2019-06-20T10:10:42.039Z,988.53
2019-06-20T10:11:42.029Z,988.57
2019-06-20T10:12:42.028Z,988.54
2019-06-20T10:13:42.023Z,988.55
2019-06-20T10:14:41.997Z,988.56
2019-06-20T10:15:41.986Z,988.55
2019-06-20T10:16:45.824Z,988.56
2019-06-20T10:17:43.007Z,988.56
2019-06-20T10:18:41.958Z,988.56
2019-06-20T10:19:41.967Z,988.58
2019-06-20T10:20:41.935Z,988.64
2019-06-20T10:21:41.932Z,988.61
2019-06-20T10:22:41.938Z,988.58
2019-06-20T10:23:41.900Z,988.59
2019-06-20T10:24:41.893Z,988.65
2019-06-20T10:25:41.890Z,988.65
2019-06-20T10:26:41.873Z,988.66
2019-06-20T10:27:41.859Z,988.63
2019-06-20T10:28:41.858Z,988.61
2019-06-20T10:29:41.836Z,988.66
2019-06-20T10:30:41.852Z,988.65
2019-06-20T10:31:41.828Z,988.62
2019-06-20T10:32:41.905Z,988.62
2019-06-20T10:33:41.802Z,988.55
2019-06-20T10:34:41.781Z,988.64
2019-06-20T10:35:41.774Z,988.65
2019-06-20T10:36:41.779Z,988.66
2019-06-20T10:37:41.758Z,988.61
2019-06-20T10:38:41.747Z,988.65
2019-06-20T10:39:41.732Z,988.65
2019-06-20T10:40:41.716Z,988.71
2019-06-20T10:41:41.714Z,988.68
2019-06-20T10:42:41.718Z,988.66
2019-06-20T10:43:41.706Z,988.67
2019-06-20T10:44:43.196Z,988.66
2019-06-20T10:45:44.041Z,988.64
2019-06-20T10:46:42.835Z,988.65
2019-06-20T10:47:43.598Z,988.65
2019-06-20T10:48:43.087Z,988.66
2019-06-20T10:49:42.982Z,988.58
2019-06-20T10:50:42.608Z,988.56
2019-06-20T10:51:42.951Z,988.61
2019-06-20T10:52:42.560Z,988.62
2019-06-20T10:53:43.098Z,988.65
2019-06-20T10:54:43.015Z,988.64
2019-06-20T10:55:43.180Z,988.58
2019-06-20T10:56:42.284Z,988.65
2019-06-20T10:57:42.873Z,988.63
2019-06-20T10:58:42.901Z,988.59
2019-06-20T10:59:42.661Z,988.61
2019-06-20T11:00:43.053Z,988.70
2019-06-20T11:01:42.670Z,988.66
2019-06-20T11:02:42.278Z,988.67
2019-06-20T11:03:41.973Z,988.62
2019-06-20T11:04:42.406Z,988.63
2019-06-20T11:05:42.314Z,988.58
2019-06-20T11:06:41.737Z,988.66
2019-06-20T11:07:42.456Z,988.65
2019-06-20T11:08:41.800Z,988.69
2019-06-20T11:09:41.404Z,988.67
2019-06-20T11:10:42.235Z,988.65
2019-06-20T11:11:41.788Z,988.58
2019-06-20T11:12:47.857Z,988.62
2019-06-20T11:13:42.387Z,988.63
2019-06-20T11:14:42.131Z,988.58
2019-06-20T11:15:42.225Z,988.56
2019-06-20T11:16:42.190Z,988.54
2019-06-20T11:17:41.944Z,988.56
2019-06-20T11:18:41.392Z,988.52
2019-06-20T11:19:41.529Z,988.46
2019-06-20T11:20:42.659Z,988.51
2019-06-20T11:21:41.593Z,988.50
2019-06-20T11:22:41.615Z,988.47
2019-06-20T11:23:41.265Z,988.57
2019-06-20T11:24:41.245Z,988.50
2019-06-20T11:25:41.992Z,988.39
2019-06-20T11:26:41.241Z,988.42
2019-06-20T11:27:42.642Z,988.41
2019-06-20T11:28:41.449Z,988.45
2019-06-20T11:29:41.666Z,988.41
2019-06-20T11:30:52.644Z,988.42
2019-06-20T11:31:45.941Z,988.35
2019-06-20T11:32:41.160Z,988.30
2019-06-20T11:33:42.090Z,988.32
2019-06-20T11:34:42.532Z,988.36
2019-06-20T11:35:41.887Z,988.32
2019-06-20T11:36:42.358Z,988.35
2019-06-20T11:37:42.294Z,988.35
2019-06-20T11:38:42.462Z,988.33
2019-06-20T11:39:41.187Z,988.34
2019-06-20T11:40:41.651Z,988.27
2019-06-20T11:41:41.643Z,988.30
2019-06-20T11:42:41.985Z,988.30
2019-06-20T11:43:42.169Z,988.28
2019-06-20T11:44:41.040Z,988.24
2019-06-20T11:45:41.019Z,988.22
2019-06-20T11:46:41.009Z,988.27
2019-06-20T11:47:40.998Z,988.29
2019-06-20T11:48:40.987Z,988.27
2019-06-20T11:49:40.999Z,988.29
2019-06-20T11:50:42.382Z,988.26
2019-06-20T11:51:41.915Z,988.28
2019-06-20T11:52:43.984Z,988.19
2019-06-20T11:53:40.933Z,988.22
2019-06-20T11:54:40.932Z,988.25
2019-06-20T11:55:40.928Z,988.23
2019-06-20T11:56:40.900Z,988.24
2019-06-20T11:57:40.891Z,988.18
2019-06-20T11:58:40.887Z,988.25
2019-06-20T11:59:40.878Z,988.23
2019-06-20T12:00:40.860Z,988.22
2019-06-20T12:01:41.324Z,988.18
2019-06-20T12:02:42.779Z,988.22
2019-06-20T12:03:40.826Z,988.19
2019-06-20T12:04:41.523Z,988.17
2019-06-20T12:05:41.877Z,988.17
2019-06-20T12:06:41.530Z,988.13
2019-06-20T12:07:41.676Z,988.18
2019-06-20T12:08:40.775Z,988.11
2019-06-20T12:09:40.972Z,988.18
2019-06-20T12:10:40.901Z,988.17
2019-06-20T12:11:40.761Z,988.14
2019-06-20T12:12:41.119Z,988.11
2019-06-20T12:13:42.073Z,988.16
2019-06-20T12:14:41.409Z,988.10
2019-06-20T12:15:41.655Z,988.08
2019-06-20T12:16:41.352Z,988.11
2019-06-20T12:17:42.312Z,988.14
2019-06-20T12:18:41.592Z,988.18
2019-06-20T12:19:40.936Z,988.13
2019-06-20T12:20:41.135Z,988.18
2019-06-20T12:21:41.021Z,988.21
2019-06-20T12:22:41.736Z,988.09
2019-06-20T12:23:40.706Z,988.12
2019-06-20T12:24:41.663Z,988.02
2019-06-20T12:25:41.439Z,988.04
2019-06-20T12:26:40.821Z,988.07
2019-06-20T12:27:40.829Z,988.02
2019-06-20T12:28:40.781Z,988.01